| time (UTC) | temp C | wind direction | speed KPH | gust KPH | rain 1hr cm | rain 24hr cm | rain mn cm | humidity % | barometer mb |
| 20260510170907 | 21 | 193 | 4.8 | 11.3 | 0.00 | 0.00 | 0.00 | 55 | 1008.0 |
| 20260510170408 | 21 | 273 | 3.2 | 11.3 | 0.00 | 0.00 | 0.00 | 54 | 1007.9 |
| 20260510165907 | 21 | 99 | 3.2 | 12.9 | 0.00 | 0.00 | 0.00 | 55 | 1007.9 |
| 20260510165407 | 21 | 112 | 9.7 | 19.3 | 0.00 | 0.00 | 0.00 | 55 | 1008.0 |
| 20260510164408 | 21 | 159 | 8.0 | 14.5 | 0.00 | 0.00 | 0.00 | 53 | 1008.0 |
| 20260510163408 | 22 | 180 | 9.7 | 19.3 | 0.00 | 0.00 | 0.00 | 52 | 1008.5 |
| 20260510162408 | 22 | 132 | 9.7 | 16.1 | 0.00 | 0.00 | 0.00 | 53 | 1008.4 |
| 20260510161907 | 22 | 103 | 8.0 | 16.1 | 0.00 | 0.00 | 0.00 | 53 | 1008.5 |
| 20260510161407 | 21 | 123 | 8.0 | 17.7 | 0.00 | 0.00 | 0.00 | 53 | 1008.3 |
| 20260510160903 | 21 | 210 | 8.0 | 17.7 | 0.00 | 0.00 | 0.00 | 54 | 1008.2 |
| 20260510160356 | 21 | 101 | 6.4 | 14.5 | 0.00 | 0.00 | 0.00 | 54 | 1008.5 |
| 20260510155856 | 21 | 173 | 6.4 | 14.5 | 0.00 | 0.00 | 0.00 | 54 | 1008.6 |
| 20260510155355 | 21 | 222 | 3.2 | 14.5 | 0.00 | 0.00 | 0.00 | 54 | 1008.7 |
| 20260510154855 | 21 | 147 | 3.2 | 12.9 | 0.00 | 0.00 | 0.00 | 54 | 1008.9 |
| 20260510154355 | 21 | 152 | 4.8 | 14.5 | 0.00 | 0.00 | 0.00 | 53 | 1008.8 |
| 20260510153855 | 21 | 128 | 4.8 | 16.1 | 0.00 | 0.00 | 0.00 | 52 | 1009.0 |
| 20260510153355 | 22 | 117 | 8.0 | 16.1 | 0.00 | 0.00 | 0.00 | 53 | 1008.9 |
| 20260510152855 | 21 | 154 | 3.2 | 14.5 | 0.00 | 0.00 | 0.00 | 53 | 1009.2 |
| 20260510151855 | 22 | 123 | 4.8 | 11.3 | 0.00 | 0.00 | 0.00 | 52 | 1009.2 |
| 20260510151355 | 22 | 97 | 3.2 | 11.3 | 0.00 | 0.00 | 0.00 | 52 | 1009.2 |
| 20260510150855 | 22 | 124 | 4.8 | 12.9 | 0.00 | 0.00 | 0.00 | 51 | 1009.3 |
| 20260510150355 | 22 | 189 | 8.0 | 14.5 | 0.00 | 0.00 | 0.00 | 50 | 1009.3 |
| 20260510145855 | 23 | 104 | 9.7 | 19.3 | 0.00 | 0.00 | 0.00 | 49 | 1009.4 |
| 20260510145355 | 22 | 160 | 0.0 | 19.3 | 0.00 | 0.00 | 0.00 | 49 | 1009.2 |
| 20260510144854 | 23 | 142 | 9.7 | 17.7 | 0.00 | 0.00 | 0.00 | 48 | 1009.2 |
| 20260510144353 | 22 | 130 | 3.2 | 17.7 | 0.00 | 0.00 | 0.00 | 49 | 1009.4 |
| 20260510143354 | 22 | 104 | 4.8 | 12.9 | 0.00 | 0.00 | 0.00 | 49 | 1009.6 |
| 20260510142855 | 22 | 144 | 9.7 | 12.9 | 0.00 | 0.00 | 0.00 | 51 | 1009.6 |
| 20260510142355 | 22 | 171 | 3.2 | 12.9 | 0.00 | 0.00 | 0.00 | 50 | 1009.7 |
| 20260510141912 | 22 | 213 | 1.6 | 12.9 | 0.00 | 0.00 | 0.00 | 50 | 1009.4 |
| 20260510141356 | 22 | 120 | 9.7 | 11.3 | 0.00 | 0.00 | 0.00 | 50 | 1009.6 |
| 20260510140854 | 22 | 135 | 6.4 | 11.3 | 0.00 | 0.00 | 0.00 | 50 | 1009.8 |
| 20260510135855 | 22 | 176 | 6.4 | 16.1 | 0.00 | 0.00 | 0.00 | 50 | 1009.8 |
| 20260510135408 | 22 | 87 | 3.2 | 11.3 | 0.00 | 0.00 | 0.00 | 50 | 1010.1 |
| 20260510134854 | 22 | 111 | 8.0 | 16.1 | 0.00 | 0.00 | 0.00 | 50 | 1009.9 |
| 20260510134358 | 22 | 62 | 3.2 | 16.1 | 0.00 | 0.00 | 0.00 | 50 | 1010.2 |
| 20260510133854 | 22 | 145 | 3.2 | 11.3 | 0.00 | 0.00 | 0.00 | 49 | 1010.1 |
| 20260510133354 | 22 | 136 | 6.4 | 11.3 | 0.00 | 0.00 | 0.00 | 48 | 1010.6 |
| 20260510132857 | 22 | 171 | 9.7 | 22.5 | 0.00 | 0.00 | 0.00 | 49 | 1010.5 |
| 20260510132354 | 22 | 144 | 6.4 | 22.5 | 0.00 | 0.00 | 0.00 | 49 | 1010.6 |
| 20260510131848 | 22 | 171 | 6.4 | 14.5 | 0.00 | 0.00 | 0.00 | 49 | 1010.6 |
| 20260510130848 | 22 | 118 | 6.4 | 12.9 | 0.00 | 0.00 | 0.00 | 49 | 1010.8 |
| 20260510130348 | 22 | 150 | 6.4 | 12.9 | 0.00 | 0.00 | 0.00 | 49 | 1010.6 |
| 20260510125849 | 22 | 188 | 4.8 | 12.9 | 0.00 | 0.00 | 0.00 | 49 | 1010.9 |
| 20260510124350 | 22 | 153 | 4.8 | 16.1 | 0.00 | 0.00 | 0.00 | 48 | 1011.2 |
| 20260510123848 | 22 | 174 | 4.8 | 14.5 | 0.00 | 0.00 | 0.00 | 47 | 1011.2 |
| 20260510122848 | 21 | 63 | 0.0 | 16.1 | 0.00 | 0.00 | 0.00 | 47 | 1011.4 |
| 20260510122349 | 22 | 195 | 3.2 | 16.1 | 0.00 | 0.00 | 0.00 | 46 | 1011.4 |
| 20260510121348 | 25 | 330 | 0.0 | 9.7 | 0.00 | 0.00 | 0.00 | 42 | 1011.7 |
| 20260510120850 | 21 | 179 | 4.8 | 9.7 | 0.00 | 0.00 | 0.00 | 49 | 1011.8 |
| 20260510120348 | 21 | 179 | 4.8 | 9.7 | 0.00 | 0.00 | 0.00 | 49 | 1011.7 |
| 20260510115848 | 21 | 179 | 4.8 | 9.7 | 0.00 | 0.00 | 0.00 | 49 | 1012.0 |
| 20260510115340 | 21 | 179 | 4.8 | 9.7 | 0.00 | 0.00 | 0.00 | 49 | 1012.3 |
| 20260510114841 | 21 | 179 | 4.8 | 9.7 | 0.00 | 0.00 | 0.00 | 49 | 1012.2 |
| 20260510114340 | 21 | 179 | 4.8 | 9.7 | 0.00 | 0.00 | 0.00 | 49 | 1012.5 |
| 20260510113839 | 21 | 179 | 4.8 | 9.7 | 0.00 | 0.00 | 0.00 | 49 | 1012.4 |
| 20260510113340 | 21 | 179 | 4.8 | 9.7 | 0.00 | 0.00 | 0.00 | 49 | 1012.3 |
| 20260510112840 | 21 | 179 | 4.8 | 9.7 | 0.00 | 0.00 | 0.00 | 49 | 1012.4 |
| 20260510111840 | 21 | 179 | 4.8 | 9.7 | 0.00 | 0.00 | 0.00 | 49 | 1012.8 |
| 20260510111340 | 21 | 179 | 4.8 | 11.3 | 0.00 | 0.00 | 0.00 | 49 | 1012.7 |
| 20260510110841 | 21 | 172 | 9.7 | 11.3 | 0.00 | 0.00 | 0.00 | 49 | 1012.5 |
| 20260510110340 | 20 | 172 | 9.7 | 11.3 | 0.00 | 0.00 | 0.00 | 49 | 1012.8 |
| 20260510105840 | 20 | 172 | 9.7 | 11.3 | 0.00 | 0.00 | 0.00 | 49 | 1012.6 |
| 20260510104340 | 22 | 320 | 0.0 | 0.0 | 0.00 | 0.00 | 0.00 | 45 | 1013.2 |
| 20260510103840 | 22 | 348 | 0.0 | 0.0 | 0.00 | 0.00 | 0.00 | 44 | 1013.2 |
| 20260510103339 | 23 | 343 | 0.0 | 0.0 | 0.00 | 0.00 | 0.00 | 42 | 1013.2 |
| 20260510102841 | 23 | 314 | 0.0 | 0.0 | 0.00 | 0.00 | 0.00 | 44 | 1013.3 |
| 20260510102337 | 22 | 309 | 0.0 | 0.0 | 0.00 | 0.00 | 0.00 | 45 | 1013.2 |
| 20260510101837 | 22 | 309 | 0.0 | 0.0 | 0.00 | 0.00 | 0.00 | 43 | 1013.2 |
| 20260510101336 | 22 | 316 | 0.0 | 0.0 | 0.00 | 0.00 | 0.00 | 45 | 1013.2 |
| 20260510100836 | 22 | 319 | 0.0 | 0.0 | 0.00 | 0.00 | 0.00 | 43 | 1013.4 |
| 20260510100336 | 22 | 340 | 0.0 | 12.9 | 0.00 | 0.00 | 0.00 | 43 | 1013.7 |
| 20260510095837 | 22 | 323 | 0.0 | 12.9 | 0.00 | 0.00 | 0.00 | 45 | 1013.7 |
| 20260510095337 | 17 | 30 | 11.3 | 12.9 | 0.00 | 0.00 | 0.00 | 57 | 1013.7 |
| 20260510094837 | 17 | 30 | 11.3 | 12.9 | 0.00 | 0.00 | 0.00 | 57 | 1013.7 |
| 20260510094337 | 17 | 30 | 11.3 | 12.9 | 0.00 | 0.00 | 0.00 | 57 | 1013.7 |
| 20260510093837 | 17 | 30 | 11.3 | 12.9 | 0.00 | 0.00 | 0.00 | 57 | 1013.7 |
| 20260510092329 | 17 | 30 | 11.3 | 12.9 | 0.00 | 0.00 | 0.00 | 57 | 1014.0 |
| 20260510091830 | 17 | 30 | 11.3 | 12.9 | 0.00 | 0.00 | 0.00 | 57 | 1014.3 |
| 20260510091329 | 17 | 30 | 11.3 | 12.9 | 0.00 | 0.00 | 0.00 | 57 | 1014.3 |
| 20260510090330 | 17 | 30 | 11.3 | 12.9 | 0.00 | 0.00 | 0.00 | 57 | 1014.4 |
| 20260510085322 | 17 | 152 | 4.8 | 14.5 | 0.00 | 0.00 | 0.00 | 57 | 1014.8 |
| 20260510084822 | 17 | 111 | 9.7 | 14.5 | 0.00 | 0.00 | 0.00 | 58 | 1014.7 |
| 20260510084329 | 17 | 117 | 4.8 | 9.7 | 0.00 | 0.00 | 0.00 | 58 | 1014.5 |
| 20260510083320 | 17 | 103 | 6.4 | 9.7 | 0.00 | 0.00 | 0.00 | 57 | 1014.9 |
| 20260510081755 | 16 | 67 | 8.0 | 9.7 | 0.00 | 0.00 | 0.00 | 58 | 1015.2 |
| 20260510080753 | 16 | 67 | 8.0 | 9.7 | 0.00 | 0.00 | 0.00 | 58 | 1015.2 |
| 20260510080253 | 16 | 120 | 0.0 | 6.4 | 0.00 | 0.00 | 0.00 | 58 | 1015.4 |
| 20260510075752 | 16 | 139 | 4.8 | 6.4 | 0.00 | 0.00 | 0.00 | 58 | 1015.6 |
| 20260510075253 | 15 | 181 | 4.8 | 8.0 | 0.00 | 0.00 | 0.00 | 61 | 1015.5 |
| 20260510074756 | 15 | 89 | 0.0 | 16.1 | 0.00 | 0.00 | 0.00 | 61 | 1015.5 |
| 20260510074252 | 15 | 106 | 8.0 | 16.1 | 0.00 | 0.00 | 0.00 | 62 | 1015.5 |
| 20260510073753 | 15 | 117 | 3.2 | 12.9 | 0.00 | 0.00 | 0.00 | 59 | 1015.6 |
| 20260510073253 | 15 | 38 | 8.0 | 12.9 | 0.00 | 0.00 | 0.00 | 61 | 1015.6 |
| 20260510072746 | 14 | 97 | 6.4 | 12.9 | 0.00 | 0.00 | 0.00 | 63 | 1015.5 |
| 20260510072242 | 14 | 171 | 0.0 | 9.7 | 0.00 | 0.00 | 0.00 | 62 | 1015.7 |
| 20260510071743 | 13 | 146 | 3.2 | 9.7 | 0.00 | 0.00 | 0.00 | 64 | 1015.8 |
| 20260510070742 | 14 | 142 | 0.0 | 9.7 | 0.00 | 0.00 | 0.00 | 62 | 1015.9 |
| 20260510070242 | 14 | 142 | 0.0 | 9.7 | 0.00 | 0.00 | 0.00 | 62 | 1015.8 |
| 20260510065742 | 14 | 39 | 1.6 | 8.0 | 0.00 | 0.00 | 0.00 | 63 | 1016.0 |
| 20260510064735 | 13 | 183 | 3.2 | 6.4 | 0.00 | 0.00 | 0.00 | 66 | 1016.0 |
| 20260510064236 | 12 | 208 | 0.0 | 0.0 | 0.00 | 0.00 | 0.00 | 70 | 1016.1 |
| 20260510063735 | 12 | 208 | 0.0 | 0.0 | 0.00 | 0.00 | 0.00 | 71 | 1016.0 |
| 20260510063235 | 11 | 208 | 0.0 | 0.0 | 0.00 | 0.00 | 0.00 | 72 | 1016.1 |
| 20260510062735 | 11 | 208 | 0.0 | 0.0 | 0.00 | 0.00 | 0.00 | 71 | 1016.0 |
| 20260510062232 | 11 | 208 | 0.0 | 0.0 | 0.00 | 0.00 | 0.00 | 73 | 1016.1 |
| 20260510061731 | 10 | 200 | 0.0 | 0.0 | 0.00 | 0.00 | 0.00 | 75 | 1016.1 |
| 20260510060231 | 10 | 196 | 0.0 | 0.0 | 0.00 | 0.00 | 0.00 | 78 | 1016.2 |
| 20260510055731 | 9 | 196 | 0.0 | 0.0 | 0.00 | 0.00 | 0.00 | 78 | 1016.2 |
| 20260510055220 | 9 | 196 | 0.0 | 0.0 | 0.00 | 0.00 | 0.00 | 79 | 1016.5 |
| 20260510054721 | 9 | 196 | 0.0 | 0.0 | 0.00 | 0.00 | 0.00 | 79 | 1016.4 |
| 20260510054221 | 9 | 196 | 0.0 | 0.0 | 0.00 | 0.00 | 0.00 | 79 | 1016.6 |
| 20260510053722 | 8 | 196 | 0.0 | 0.0 | 0.00 | 0.00 | 0.00 | 80 | 1016.4 |
| 20260510053221 | 8 | 184 | 0.0 | 0.0 | 0.00 | 0.00 | 0.00 | 81 | 1016.6 |
| 20260510052721 | 8 | 184 | 0.0 | 0.0 | 0.00 | 0.00 | 0.00 | 82 | 1016.6 |
| 20260510052214 | 8 | 184 | 0.0 | 0.0 | 0.00 | 0.00 | 0.00 | 81 | 1016.3 |
| 20260510051714 | 8 | 184 | 0.0 | 0.0 | 0.00 | 0.00 | 0.00 | 81 | 1016.6 |
| 20260510051214 | 8 | 184 | 0.0 | 0.0 | 0.00 | 0.00 | 0.00 | 82 | 1016.0 |
| 20260510050702 | 7 | 184 | 0.0 | 0.0 | 0.00 | 0.00 | 0.00 | 82 | 1016.3 |
| 20260510045703 | 7 | 183 | 0.0 | 0.0 | 0.00 | 0.00 | 0.00 | 83 | 1016.3 |
| 20260510045145 | 7 | 183 | 0.0 | 0.0 | 0.00 | 0.00 | 0.00 | 84 | 1016.2 |
| 20260510044143 | 6 | 183 | 0.0 | 0.0 | 0.00 | 0.00 | 0.00 | 86 | 1016.5 |
| 20260510043643 | 6 | 183 | 0.0 | 0.0 | 0.00 | 0.00 | 0.00 | 87 | 1016.4 |
| 20260510043143 | 6 | 183 | 0.0 | 0.0 | 0.00 | 0.00 | 0.00 | 87 | 1016.3 |
| 20260510042643 | 6 | 183 | 0.0 | 0.0 | 0.00 | 0.00 | 0.00 | 88 | 1016.3 |
| 20260510042138 | 5 | 183 | 0.0 | 0.0 | 0.00 | 0.00 | 0.00 | 88 | 1016.4 |
| 20260510041139 | 5 | 183 | 0.0 | 0.0 | 0.00 | 0.00 | 0.00 | 87 | 1016.4 |
| 20260510040639 | 5 | 183 | 0.0 | 0.0 | 0.00 | 0.00 | 0.00 | 87 | 1016.3 |
| 20260510035638 | 5 | 183 | 0.0 | 0.0 | 0.00 | 0.00 | 0.00 | 88 | 1016.7 |
| 20260510035130 | 5 | 183 | 0.0 | 0.0 | 0.00 | 0.00 | 0.00 | 88 | 1016.3 |
| 20260510034629 | 5 | 183 | 0.0 | 0.0 | 0.00 | 0.00 | 0.00 | 89 | 1016.8 |
| 20260510034129 | 5 | 183 | 0.0 | 0.0 | 0.00 | 0.00 | 0.00 | 89 | 1016.9 |
| 20260510033629 | 5 | 183 | 0.0 | 0.0 | 0.00 | 0.00 | 0.00 | 89 | 1016.8 |
| 20260510033129 | 5 | 183 | 0.0 | 0.0 | 0.00 | 0.00 | 0.00 | 89 | 1016.8 |
| 20260510032629 | 5 | 183 | 0.0 | 0.0 | 0.00 | 0.00 | 0.00 | 89 | 1016.6 |
| 20260510032121 | 5 | 183 | 0.0 | 0.0 | 0.00 | 0.00 | 0.00 | 89 | 1016.7 |
| 20260510031622 | 5 | 183 | 0.0 | 0.0 | 0.00 | 0.00 | 0.00 | 89 | 1016.6 |
| 20260510031123 | 5 | 183 | 0.0 | 0.0 | 0.00 | 0.00 | 0.00 | 89 | 1016.6 |
| 20260510030622 | 5 | 183 | 0.0 | 0.0 | 0.00 | 0.00 | 0.00 | 89 | 1016.8 |
| 20260510030122 | 5 | 183 | 0.0 | 0.0 | 0.00 | 0.00 | 0.00 | 89 | 1016.9 |
| 20260510025622 | 5 | 183 | 0.0 | 0.0 | 0.00 | 0.00 | 0.00 | 89 | 1016.7 |
| 20260510025118 | 5 | 183 | 0.0 | 0.0 | 0.00 | 0.00 | 0.00 | 88 | 1016.9 |
| 20260510024618 | 5 | 183 | 0.0 | 0.0 | 0.00 | 0.00 | 0.00 | 88 | 1016.9 |
| 20260510024107 | 5 | 183 | 0.0 | 0.0 | 0.00 | 0.00 | 0.00 | 88 | 1016.7 |
| 20260510023606 | 5 | 183 | 0.0 | 0.0 | 0.00 | 0.00 | 0.00 | 88 | 1016.8 |
| 20260510023106 | 5 | 183 | 0.0 | 0.0 | 0.00 | 0.00 | 0.00 | 88 | 1016.6 |
| 20260510022606 | 5 | 183 | 0.0 | 0.0 | 0.00 | 0.00 | 0.00 | 88 | 1016.7 |
| 20260510022106 | 5 | 183 | 0.0 | 0.0 | 0.00 | 0.00 | 0.00 | 87 | 1016.7 |
| 20260510021607 | 5 | 183 | 0.0 | 0.0 | 0.00 | 0.00 | 0.00 | 87 | 1016.6 |
| 20260510021106 | 5 | 183 | 0.0 | 0.0 | 0.00 | 0.00 | 0.00 | 86 | 1016.8 |
| 20260510020600 | 6 | 183 | 0.0 | 0.0 | 0.00 | 0.00 | 0.00 | 85 | 1016.7 |
| 20260510020054 | 6 | 183 | 0.0 | 0.0 | 0.00 | 0.00 | 0.00 | 85 | 1016.8 |
| 20260510015554 | 6 | 183 | 0.0 | 0.0 | 0.00 | 0.00 | 0.00 | 85 | 1016.9 |
| 20260510014547 | 6 | 183 | 0.0 | 0.0 | 0.00 | 0.00 | 0.00 | 84 | 1016.8 |
| 20260510014047 | 6 | 183 | 0.0 | 0.0 | 0.00 | 0.00 | 0.00 | 84 | 1016.6 |
| 20260510013547 | 6 | 183 | 0.0 | 0.0 | 0.00 | 0.00 | 0.00 | 84 | 1016.7 |
| 20260510012547 | 6 | 183 | 0.0 | 0.0 | 0.00 | 0.00 | 0.00 | 83 | 1016.7 |
| 20260510012043 | 6 | 183 | 0.0 | 0.0 | 0.00 | 0.00 | 0.00 | 83 | 1016.9 |
| 20260510011543 | 6 | 183 | 0.0 | 0.0 | 0.00 | 0.00 | 0.00 | 83 | 1016.6 |
| 20260510011043 | 6 | 183 | 0.0 | 0.0 | 0.00 | 0.00 | 0.00 | 82 | 1016.6 |
| 20260510010543 | 6 | 183 | 0.0 | 0.0 | 0.00 | 0.00 | 0.00 | 82 | 1016.7 |
| 20260510010043 | 6 | 183 | 0.0 | 0.0 | 0.00 | 0.00 | 0.00 | 82 | 1016.8 |
| 20260510005544 | 6 | 183 | 0.0 | 0.0 | 0.00 | 0.00 | 0.00 | 82 | 1017.0 |
| 20260510005041 | 7 | 183 | 0.0 | 0.0 | 0.00 | 0.00 | 0.00 | 81 | 1017.0 |
| 20260510004541 | 7 | 183 | 0.0 | 0.0 | 0.00 | 0.00 | 0.00 | 81 | 1016.9 |
| 20260510004042 | 7 | 183 | 0.0 | 0.0 | 0.00 | 0.00 | 0.00 | 81 | 1017.2 |
| 20260510003543 | 7 | 183 | 0.0 | 0.0 | 0.00 | 0.00 | 0.00 | 81 | 1016.9 |
| 20260510003044 | 7 | 183 | 0.0 | 0.0 | 0.00 | 0.00 | 0.00 | 82 | 1017.3 |
| 20260510002544 | 7 | 183 | 0.0 | 0.0 | 0.00 | 0.00 | 0.00 | 82 | 1017.4 |
| 20260510002037 | 7 | 183 | 0.0 | 0.0 | 0.00 | 0.00 | 0.00 | 83 | 1017.2 |
| 20260510001536 | 7 | 235 | 0.0 | 0.0 | 0.00 | 0.00 | 0.00 | 83 | 1017.5 |
| 20260510001036 | 7 | 235 | 0.0 | 0.0 | 0.00 | 0.00 | 0.00 | 84 | 1017.5 |
| 20260510000537 | 6 | 235 | 0.0 | 0.0 | 0.00 | 0.00 | 0.00 | 84 | 1017.4 |
| 20260510000049 | 6 | 239 | 0.0 | 0.0 | 0.00 | 0.00 | 0.00 | 85 | 1017.5 |
| 20260509235536 | 6 | 239 | 0.0 | 0.0 | 0.00 | 0.00 | 0.00 | 85 | 1017.6 |
| 20260509235036 | 6 | 239 | 0.0 | 0.0 | 0.00 | 0.00 | 0.00 | 84 | 1017.7 |
| 20260509234036 | 7 | 239 | 0.0 | 0.0 | 0.00 | 0.00 | 0.00 | 83 | 1017.7 |
| 20260509233535 | 7 | 239 | 0.0 | 0.0 | 0.00 | 0.00 | 0.00 | 83 | 1017.6 |
| 20260509233035 | 7 | 239 | 0.0 | 0.0 | 0.00 | 0.00 | 0.00 | 82 | 1017.6 |
| 20260509232537 | 7 | 240 | 0.0 | 0.0 | 0.00 | 0.00 | 0.00 | 83 | 1018.2 |
| 20260509232031 | 7 | 240 | 0.0 | 0.0 | 0.00 | 0.00 | 0.00 | 83 | 1017.9 |
| 20260509231532 | 7 | 239 | 0.0 | 0.0 | 0.00 | 0.00 | 0.00 | 83 | 1018.2 |
| 20260509230530 | 7 | 239 | 0.0 | 0.0 | 0.00 | 0.00 | 0.00 | 81 | 1018.4 |
| 20260509230030 | 7 | 239 | 0.0 | 0.0 | 0.00 | 0.00 | 0.00 | 80 | 1018.2 |
| 20260509225531 | 8 | 239 | 0.0 | 0.0 | 0.00 | 0.00 | 0.00 | 78 | 1017.9 |
| 20260509225031 | 8 | 239 | 0.0 | 0.0 | 0.00 | 0.00 | 0.00 | 78 | 1018.4 |
| 20260509224531 | 8 | 239 | 0.0 | 0.0 | 0.00 | 0.00 | 0.00 | 78 | 1018.4 |
| 20260509224030 | 8 | 239 | 0.0 | 0.0 | 0.00 | 0.00 | 0.00 | 78 | 1018.4 |
| 20260509223031 | 8 | 240 | 0.0 | 0.0 | 0.00 | 0.00 | 0.00 | 76 | 1018.4 |
| 20260509222035 | 8 | 240 | 0.0 | 0.0 | 0.00 | 0.00 | 0.00 | 76 | 1018.6 |
| 20260509221530 | 9 | 240 | 0.0 | 0.0 | 0.00 | 0.00 | 0.00 | 75 | 1018.3 |
| 20260509221031 | 9 | 240 | 0.0 | 0.0 | 0.00 | 0.00 | 0.00 | 74 | 1018.6 |
| 20260509220530 | 9 | 240 | 0.0 | 0.0 | 0.00 | 0.00 | 0.00 | 74 | 1018.4 |
| 20260509220031 | 9 | 240 | 0.0 | 0.0 | 0.00 | 0.00 | 0.00 | 74 | 1018.6 |
| 20260509215530 | 9 | 240 | 0.0 | 0.0 | 0.00 | 0.00 | 0.00 | 73 | 1018.5 |
| 20260509215030 | 10 | 240 | 0.0 | 0.0 | 0.00 | 0.00 | 0.00 | 73 | 1018.4 |
| 20260509214531 | 10 | 240 | 0.0 | 0.0 | 0.00 | 0.00 | 0.00 | 72 | 1018.3 |
| 20260509214029 | 10 | 240 | 0.0 | 0.0 | 0.00 | 0.00 | 0.00 | 72 | 1018.6 |
| 20260509213030 | 10 | 240 | 0.0 | 0.0 | 0.00 | 0.00 | 0.00 | 71 | 1018.3 |
| 20260509212543 | 10 | 240 | 0.0 | 0.0 | 0.00 | 0.00 | 0.00 | 72 | 1018.3 |
| 20260509211529 | 10 | 240 | 0.0 | 0.0 | 0.00 | 0.00 | 0.00 | 70 | 1018.4 |
| 20260509211030 | 10 | 240 | 0.0 | 0.0 | 0.00 | 0.00 | 0.00 | 70 | 1018.3 |
| 20260509210530 | 10 | 240 | 0.0 | 0.0 | 0.00 | 0.00 | 0.00 | 71 | 1018.4 |
| 20260509210032 | 10 | 240 | 0.0 | 0.0 | 0.00 | 0.00 | 0.00 | 71 | 1018.5 |
| 20260509205530 | 10 | 240 | 0.0 | 0.0 | 0.00 | 0.00 | 0.00 | 69 | 1018.6 |
| 20260509205030 | 10 | 240 | 0.0 | 0.0 | 0.00 | 0.00 | 0.00 | 69 | 1018.3 |
| 20260509204530 | 10 | 240 | 0.0 | 0.0 | 0.00 | 0.00 | 0.00 | 69 | 1018.5 |
| 20260509204030 | 10 | 240 | 0.0 | 0.0 | 0.00 | 0.00 | 0.00 | 69 | 1018.1 |
| 20260509203030 | 11 | 240 | 0.0 | 0.0 | 0.00 | 0.00 | 0.00 | 68 | 1018.2 |
| 20260509202531 | 11 | 240 | 0.0 | 0.0 | 0.00 | 0.00 | 0.00 | 68 | 1018.4 |
| 20260509201030 | 11 | 240 | 0.0 | 0.0 | 0.00 | 0.00 | 0.00 | 68 | 1018.2 |
| 20260509200530 | 11 | 240 | 0.0 | 0.0 | 0.00 | 0.00 | 0.00 | 68 | 1018.3 |
| 20260509200030 | 11 | 240 | 0.0 | 0.0 | 0.00 | 0.00 | 0.00 | 68 | 1018.2 |
| 20260509195530 | 11 | 244 | 0.0 | 0.0 | 0.00 | 0.00 | 0.00 | 67 | 1018.2 |
| 20260509195030 | 12 | 235 | 0.0 | 0.0 | 0.00 | 0.00 | 0.00 | 66 | 1018.2 |
| 20260509194530 | 12 | 235 | 0.0 | 0.0 | 0.00 | 0.00 | 0.00 | 66 | 1018.3 |
| 20260509193030 | 12 | 264 | 0.0 | 0.0 | 0.00 | 0.00 | 0.00 | 65 | 1018.2 |
| 20260509192030 | 13 | 265 | 0.0 | 0.0 | 0.00 | 0.00 | 0.00 | 64 | 1018.2 |
| 20260509191530 | 13 | 268 | 0.0 | 0.0 | 0.00 | 0.00 | 0.00 | 63 | 1018.3 |
| 20260509191028 | 13 | 268 | 0.0 | 0.0 | 0.00 | 0.00 | 0.00 | 62 | 1018.1 |
| 20260509190032 | 13 | 241 | 0.0 | 0.0 | 0.00 | 0.00 | 0.00 | 62 | 1017.5 |
| 20260509185528 | 13 | 253 | 0.0 | 0.0 | 0.00 | 0.00 | 0.00 | 62 | 1017.9 |
| 20260509184020 | 17 | 98 | 12.9 | 14.5 | 0.00 | 0.00 | 0.00 | 53 | 1017.4 |
| 20260509183514 | 17 | 98 | 12.9 | 14.5 | 0.00 | 0.00 | 0.00 | 53 | 1017.3 |
| 20260509183013 | 17 | 98 | 12.9 | 14.5 | 0.00 | 0.00 | 0.00 | 53 | 1017.3 |
| 20260509182515 | 17 | 98 | 12.9 | 14.5 | 0.00 | 0.00 | 0.00 | 53 | 1017.4 |
| 20260509182014 | 17 | 98 | 12.9 | 14.5 | 0.00 | 0.00 | 0.00 | 53 | 1017.4 |
| 20260509181514 | 17 | 98 | 12.9 | 14.5 | 0.00 | 0.00 | 0.00 | 53 | 1017.0 |
| 20260509181002 | 17 | 98 | 12.9 | 14.5 | 0.00 | 0.00 | 0.00 | 53 | 1017.1 |
| 20260509180503 | 17 | 98 | 12.9 | 14.5 | 0.00 | 0.00 | 0.00 | 53 | 1017.0 |
| 20260509180003 | 17 | 98 | 12.9 | 14.5 | 0.00 | 0.00 | 0.00 | 53 | 1016.8 |
| 20260509174956 | 17 | 98 | 12.9 | 14.5 | 0.00 | 0.00 | 0.00 | 53 | 1016.9 |
| 20260509174450 | 17 | 98 | 12.9 | 14.5 | 0.00 | 0.00 | 0.00 | 53 | 1017.1 |
| 20260509173950 | 16 | 264 | 0.0 | 0.0 | 0.00 | 0.00 | 0.00 | 53 | 1017.0 |
| 20260509173444 | 17 | 236 | 0.0 | 0.0 | 0.00 | 0.00 | 0.00 | 53 | 1016.8 |
| 20260509172946 | 17 | 256 | 0.0 | 0.0 | 0.00 | 0.00 | 0.00 | 52 | 1016.9 |
| 20260509172442 | 17 | 259 | 0.0 | 0.0 | 0.00 | 0.00 | 0.00 | 50 | 1016.6 |
| 20260509171939 | 17 | 216 | 0.0 | 0.0 | 0.00 | 0.00 | 0.00 | 51 | 1016.7 |
| 20260509171436 | 17 | 225 | 0.0 | 0.0 | 0.00 | 0.00 | 0.00 | 50 | 1016.7 |